createdAt,value
2018-11-13T00:01:32.838Z,39.63
2018-11-13T00:04:00.481Z,42.07
2018-11-13T00:06:30.904Z,42.83
2018-11-13T00:08:59.371Z,43.13
2018-11-13T00:11:27.312Z,44.00
2018-11-13T00:13:55.571Z,47.03
2018-11-13T00:16:23.375Z,43.30
2018-11-13T00:18:51.126Z,43.50
2018-11-13T00:21:18.932Z,43.17
2018-11-13T00:23:46.714Z,45.27
2018-11-13T00:26:14.394Z,45.43
2018-11-13T00:28:42.078Z,46.07
2018-11-13T00:31:09.733Z,46.00
2018-11-13T00:33:37.440Z,47.90
2018-11-13T00:36:05.128Z,50.40
2018-11-13T00:38:32.746Z,50.07
2018-11-13T00:41:00.285Z,49.47
2018-11-13T00:43:28.137Z,49.00
2018-11-13T00:45:56.280Z,47.53
2018-11-13T00:48:23.361Z,50.90
2018-11-13T00:50:51.707Z,48.77
2018-11-13T00:53:20.328Z,48.90
2018-11-13T00:55:49.433Z,54.23
2018-11-13T00:58:17.209Z,53.67
2018-11-13T01:00:44.853Z,53.33
2018-11-13T01:03:12.591Z,57.13
2018-11-13T01:05:40.842Z,56.53
2018-11-13T01:08:08.567Z,57.00
2018-11-13T01:10:36.420Z,57.63
2018-11-13T01:13:04.883Z,59.13
2018-11-13T01:15:33.455Z,58.27
2018-11-13T01:18:01.017Z,58.20
2018-11-13T01:20:28.641Z,60.17
2018-11-13T01:22:56.846Z,61.73
2018-11-13T01:25:25.044Z,61.10
2018-11-13T01:27:52.720Z,59.67
2018-11-13T01:30:20.903Z,59.20
2018-11-13T01:32:48.554Z,59.47
2018-11-13T01:35:17.862Z,61.40
2018-11-13T01:37:47.231Z,61.63
2018-11-13T01:40:16.383Z,58.73
2018-11-13T01:42:44.110Z,61.23
2018-11-13T01:45:13.986Z,62.37
2018-11-13T01:47:41.756Z,63.67
2018-11-13T01:50:09.907Z,63.33
2018-11-13T01:52:37.619Z,62.10
2018-11-13T01:55:10.018Z,60.63
2018-11-13T01:57:38.083Z,60.73
2018-11-13T02:00:14.987Z,62.47
2018-11-13T02:02:43.313Z,61.17
2018-11-13T02:05:11.608Z,58.37
2018-11-13T02:07:40.563Z,61.70
2018-11-13T02:10:11.617Z,60.47
2018-11-13T02:12:39.632Z,58.47
2018-11-13T02:15:07.801Z,59.17
2018-11-13T02:17:35.510Z,59.10
2018-11-13T02:20:04.745Z,58.67
2018-11-13T02:22:32.383Z,57.90
2018-11-13T02:25:00.105Z,56.10
2018-11-13T02:27:27.742Z,56.37
2018-11-13T02:29:55.616Z,54.13
2018-11-13T02:32:23.819Z,55.67
2018-11-13T02:34:51.461Z,56.07
2018-11-13T02:37:19.145Z,53.83
2018-11-13T02:39:46.916Z,54.23
2018-11-13T02:42:15.596Z,54.57
2018-11-13T02:44:43.276Z,59.73
2018-11-13T02:47:11.023Z,55.33
2018-11-13T02:49:41.105Z,58.20
2018-11-13T02:52:08.655Z,55.83
2018-11-13T02:54:41.635Z,55.50
2018-11-13T02:57:10.872Z,57.73
2018-11-13T02:59:39.468Z,57.83
2018-11-13T03:02:07.577Z,57.10
2018-11-13T03:04:35.187Z,55.93
2018-11-13T03:07:02.813Z,59.57
2018-11-13T03:09:30.507Z,56.47
2018-11-13T03:11:58.213Z,56.03
2018-11-13T03:14:25.955Z,57.30
2018-11-13T03:16:54.098Z,52.37
2018-11-13T03:19:25.145Z,52.87
2018-11-13T03:21:53.771Z,52.80
2018-11-13T03:24:21.507Z,53.83
2018-11-13T03:26:49.685Z,54.80
2018-11-13T03:29:17.360Z,55.90
2018-11-13T03:31:44.997Z,55.80
2018-11-13T03:34:12.600Z,56.43
2018-11-13T03:36:43.373Z,56.13
2018-11-13T03:39:11.517Z,53.33
2018-11-13T03:41:39.583Z,55.03
2018-11-13T03:44:09.245Z,55.93
2018-11-13T03:46:38.433Z,54.07
2018-11-13T03:49:06.162Z,53.30
2018-11-13T03:51:33.827Z,52.53
2018-11-13T03:54:02.555Z,54.27
2018-11-13T03:56:30.123Z,53.80
2018-11-13T03:58:58.641Z,54.37
2018-11-13T04:01:26.223Z,55.73
2018-11-13T04:03:53.743Z,54.93
2018-11-13T04:06:21.981Z,57.60
2018-11-13T04:08:50.027Z,55.87
2018-11-13T04:11:17.724Z,55.20
2018-11-13T04:13:45.413Z,52.70
2018-11-13T04:16:15.411Z,51.27
2018-11-13T04:18:43.680Z,53.73
2018-11-13T04:21:11.414Z,54.90
2018-11-13T04:23:39.032Z,56.53
2018-11-13T04:26:06.642Z,52.90
2018-11-13T04:28:34.680Z,53.63
2018-11-13T04:31:02.418Z,51.43
2018-11-13T04:33:30.356Z,54.77
2018-11-13T04:35:58.317Z,54.50
2018-11-13T04:38:25.911Z,56.30
2018-11-13T04:40:53.748Z,54.50
2018-11-13T04:43:22.029Z,53.40
2018-11-13T04:45:49.658Z,53.60
2018-11-13T04:48:17.312Z,55.47
2018-11-13T04:50:44.950Z,54.97
2018-11-13T04:53:13.142Z,53.93
2018-11-13T04:55:40.791Z,52.83
2018-11-13T04:58:08.599Z,52.00
2018-11-13T05:00:36.190Z,50.60
2018-11-13T05:03:03.915Z,52.13
2018-11-13T05:05:31.769Z,52.10
2018-11-13T05:07:59.494Z,49.27
2018-11-13T05:10:28.186Z,52.37
2018-11-13T05:12:55.792Z,51.70
2018-11-13T05:15:23.842Z,50.03
2018-11-13T05:17:51.449Z,47.77
2018-11-13T05:20:19.950Z,49.57
2018-11-13T05:22:47.613Z,47.47
2018-11-13T05:41:11.166Z,43.73
2018-11-13T05:43:38.865Z,45.23
2018-11-13T05:46:06.595Z,43.93
2018-11-13T05:48:34.469Z,45.57
2018-11-13T05:51:02.516Z,46.27
2018-11-13T05:53:30.415Z,43.70
2018-11-13T05:55:58.248Z,42.73
2018-11-13T05:58:26.146Z,42.67
2018-11-13T06:00:54.127Z,43.13
2018-11-13T06:03:22.261Z,42.47
2018-11-13T06:05:50.206Z,43.07
2018-11-13T06:08:18.628Z,40.43
2018-11-13T06:10:46.820Z,42.43
2018-11-13T06:13:14.962Z,43.43
2018-11-13T06:15:42.912Z,40.10
2018-11-13T06:18:10.864Z,40.10
2018-11-13T06:20:38.834Z,39.97
2018-11-13T06:23:06.774Z,39.23
2018-11-13T06:25:35.359Z,37.73
2018-11-13T06:28:03.150Z,39.20
2018-11-13T06:30:31.272Z,39.80
2018-11-13T06:32:58.978Z,38.70
2018-11-13T06:35:26.794Z,39.00
2018-11-13T06:37:54.776Z,39.20
2018-11-13T06:40:22.933Z,40.67
2018-11-13T06:42:50.812Z,39.33
2018-11-13T06:45:22.684Z,36.60
2018-11-13T06:47:50.741Z,39.93
2018-11-13T06:50:18.768Z,37.73
2018-11-13T06:52:47.651Z,37.47
2018-11-13T06:55:28.622Z,35.93
2018-11-13T06:58:00.621Z,37.10
2018-11-13T07:00:28.771Z,37.03
2018-11-13T07:02:56.956Z,37.73
2018-11-13T07:05:25.180Z,36.10
2018-11-13T07:07:53.094Z,36.90
2018-11-13T07:10:22.717Z,37.60
2018-11-13T07:12:51.596Z,37.63
2018-11-13T07:15:20.918Z,36.03
2018-11-13T07:17:50.265Z,37.60
2018-11-13T07:20:19.450Z,37.47
2018-11-13T07:22:47.584Z,38.53
2018-11-13T07:25:16.051Z,36.83
2018-11-13T07:27:44.436Z,37.10
2018-11-13T07:30:13.883Z,35.33
2018-11-13T07:32:42.068Z,35.90
2018-11-13T07:35:11.728Z,38.33
2018-11-13T07:37:42.331Z,34.43
2018-11-13T07:40:10.352Z,33.67
2018-11-13T07:42:38.287Z,34.97
2018-11-13T07:45:09.047Z,33.03
2018-11-13T07:47:37.063Z,34.63
2018-11-13T07:50:07.300Z,33.00
2018-11-13T07:52:36.368Z,33.30
2018-11-13T07:55:04.874Z,34.00
2018-11-13T07:57:32.804Z,34.97
2018-11-13T08:00:00.622Z,34.80
2018-11-13T08:02:28.682Z,32.37
2018-11-13T08:04:56.756Z,33.70
2018-11-13T08:07:24.850Z,33.07
2018-11-13T08:09:53.932Z,32.20
2018-11-13T08:12:21.834Z,33.30
2018-11-13T08:14:49.607Z,31.13
2018-11-13T08:17:17.670Z,31.53
2018-11-13T08:19:45.760Z,31.87
2018-11-13T08:22:13.716Z,32.50
2018-11-13T08:24:41.779Z,32.27
2018-11-13T08:27:10.050Z,30.93
2018-11-13T08:29:38.146Z,29.80
2018-11-13T08:32:06.191Z,29.83
2018-11-13T08:34:34.048Z,28.67
2018-11-13T08:37:02.120Z,27.63
2018-11-13T08:39:30.605Z,26.53
2018-11-13T08:41:59.461Z,25.73
2018-11-13T08:44:27.675Z,24.63
2018-11-13T08:46:55.678Z,22.63
2018-11-13T08:49:23.715Z,25.03
2018-11-13T08:51:51.964Z,23.70
2018-11-13T08:54:19.922Z,26.27
2018-11-13T08:56:48.041Z,24.67
2018-11-13T08:59:16.194Z,25.37
2018-11-13T09:01:44.235Z,24.93
2018-11-13T09:04:12.408Z,26.13
2018-11-13T09:06:40.311Z,25.03
2018-11-13T09:09:11.064Z,26.27
2018-11-13T09:11:39.139Z,25.90
2018-11-13T09:14:07.215Z,25.80
2018-11-13T09:16:35.304Z,26.20
2018-11-13T09:19:03.721Z,26.63
2018-11-13T09:21:31.649Z,26.53
2018-11-13T09:23:59.871Z,27.27
2018-11-13T09:26:28.761Z,28.33
2018-11-13T09:28:57.199Z,27.00
2018-11-13T09:31:25.403Z,27.27
2018-11-13T09:33:55.092Z,26.53
2018-11-13T09:36:23.422Z,27.97
2018-11-13T09:38:52.042Z,29.57
2018-11-13T09:41:20.157Z,28.87
2018-11-13T09:43:48.314Z,29.67
2018-11-13T09:46:16.634Z,29.47
2018-11-13T09:48:44.597Z,28.87
2018-11-13T09:51:12.840Z,30.27
2018-11-13T09:53:41.056Z,29.90
2018-11-13T09:56:09.105Z,28.63
2018-11-13T09:58:37.362Z,28.87
2018-11-13T10:01:06.415Z,30.43
2018-11-13T10:03:35.126Z,29.63
2018-11-13T10:06:03.614Z,30.47
2018-11-13T10:08:31.670Z,27.87
2018-11-13T10:10:59.804Z,28.07
2018-11-13T10:13:27.887Z,28.63
2018-11-13T10:15:56.270Z,28.40
2018-11-13T10:18:24.627Z,26.37
2018-11-13T10:20:52.812Z,25.87
2018-11-13T10:23:22.165Z,26.97
2018-11-13T10:25:50.132Z,26.47
2018-11-13T10:28:18.251Z,26.63
2018-11-13T10:30:46.551Z,27.70
2018-11-13T10:33:14.785Z,27.13
2018-11-13T10:35:42.846Z,28.20
2018-11-13T10:38:10.886Z,27.13
2018-11-13T10:40:39.076Z,26.37
2018-11-13T10:43:07.833Z,25.23
2018-11-13T10:45:36.779Z,24.30
2018-11-13T10:48:04.860Z,23.67
2018-11-13T10:50:32.960Z,23.93
2018-11-13T10:53:01.233Z,23.07
2018-11-13T10:55:33.047Z,22.93
2018-11-13T10:58:01.235Z,22.60
2018-11-13T11:00:35.017Z,21.03
2018-11-13T11:03:05.097Z,20.77
2018-11-13T11:05:33.093Z,19.47
2018-11-13T11:08:01.444Z,18.00
2018-11-13T11:10:29.591Z,19.97
2018-11-13T11:12:57.680Z,18.87
2018-11-13T11:15:25.700Z,19.40
2018-11-13T11:17:53.701Z,20.20
2018-11-13T11:20:21.549Z,19.57
2018-11-13T11:22:49.624Z,19.70
2018-11-13T11:25:17.899Z,20.27
2018-11-13T11:27:45.770Z,19.83
2018-11-13T11:30:14.946Z,19.57
2018-11-13T11:32:43.915Z,19.43
2018-11-13T11:35:11.951Z,19.40
2018-11-13T11:37:40.404Z,18.97
2018-11-13T11:40:09.180Z,18.50
2018-11-13T11:42:38.034Z,19.23
2018-11-13T11:45:08.247Z,19.20
2018-11-13T11:47:36.483Z,20.07
2018-11-13T11:50:05.934Z,16.80
2018-11-13T11:52:36.515Z,17.23
2018-11-13T11:55:05.088Z,17.20
2018-11-13T11:57:33.166Z,15.43
2018-11-13T12:00:01.495Z,16.17
2018-11-13T12:02:29.978Z,15.07
2018-11-13T12:04:58.690Z,13.97
2018-11-13T12:07:28.100Z,14.93
2018-11-13T12:09:56.394Z,13.63
2018-11-13T12:12:47.795Z,12.77
2018-11-13T12:15:17.614Z,11.60
2018-11-13T12:17:45.843Z,12.10
2018-11-13T12:20:15.012Z,11.57
2018-11-13T12:22:43.023Z,11.50
2018-11-13T12:25:15.784Z,10.50
2018-11-13T12:27:43.725Z,10.80
2018-11-13T12:30:13.835Z,11.73
2018-11-13T12:32:41.986Z,10.60
2018-11-13T12:35:11.753Z,10.57
2018-11-13T12:37:40.010Z,11.10
2018-11-13T12:40:10.578Z,10.70
2018-11-13T12:42:39.203Z,11.33
2018-11-13T12:45:08.601Z,12.93
2018-11-13T12:47:36.734Z,12.53
2018-11-13T12:50:06.927Z,10.63
2018-11-13T12:52:35.012Z,11.27
2018-11-13T12:55:02.957Z,10.97
2018-11-13T12:57:31.156Z,11.17
2018-11-13T12:59:59.195Z,11.27
2018-11-13T13:02:28.274Z,11.43
2018-11-13T13:04:56.776Z,10.80
2018-11-13T13:07:25.696Z,9.37
2018-11-13T13:09:53.994Z,11.00
2018-11-13T13:12:22.241Z,10.43
2018-11-13T13:17:30.685Z,11.47
2018-11-13T13:19:58.675Z,10.67
2018-11-13T13:22:27.236Z,11.33
2018-11-13T13:24:55.302Z,10.60
2018-11-13T13:27:23.547Z,11.47
2018-11-13T13:29:52.956Z,11.03
2018-11-13T13:32:21.042Z,11.10
2018-11-13T13:34:49.070Z,10.73
2018-11-13T13:37:17.218Z,10.63
2018-11-13T13:39:45.571Z,10.77
2018-11-13T13:42:14.504Z,11.50
2018-11-13T13:44:42.708Z,11.40
2018-11-13T13:47:11.981Z,10.73
2018-11-13T13:49:40.190Z,10.67
2018-11-13T13:52:08.646Z,11.63
2018-11-13T13:54:36.903Z,10.80
2018-11-13T13:57:20.168Z,11.13
2018-11-13T13:59:48.432Z,10.93
2018-11-13T14:02:16.965Z,11.33
2018-11-13T14:04:45.487Z,11.30
2018-11-13T14:07:13.449Z,10.50
2018-11-13T14:09:43.931Z,9.70
2018-11-13T14:12:12.339Z,10.67
2018-11-13T14:14:40.606Z,10.20
2018-11-13T14:17:08.936Z,10.27
2018-11-13T14:19:36.929Z,9.87
2018-11-13T14:22:05.500Z,10.33
2018-11-13T14:24:33.769Z,11.00
2018-11-13T14:27:02.222Z,9.67
2018-11-13T14:29:39.925Z,9.77
2018-11-13T14:32:08.502Z,10.87
2018-11-13T14:34:37.175Z,9.13
2018-11-13T14:37:05.545Z,9.93
2018-11-13T14:39:33.618Z,9.63
2018-11-13T14:42:02.204Z,10.23
2018-11-13T14:44:31.076Z,10.50
2018-11-13T14:46:59.515Z,9.80
2018-11-13T14:49:27.983Z,9.83
2018-11-13T14:51:56.452Z,9.40
2018-11-13T14:54:29.823Z,10.20
2018-11-13T14:56:58.103Z,9.47
2018-11-13T14:59:26.354Z,8.70
2018-11-13T15:01:55.157Z,8.80
2018-11-13T15:04:23.223Z,8.60
2018-11-13T15:06:51.390Z,8.77
2018-11-13T15:09:19.542Z,8.87
2018-11-13T15:11:47.507Z,8.80
2018-11-13T15:14:15.787Z,8.47
2018-11-13T15:16:44.196Z,8.13
2018-11-13T15:19:12.497Z,8.63
2018-11-13T15:21:41.934Z,8.37
2018-11-13T15:24:12.545Z,8.23
2018-11-13T15:26:43.038Z,8.40
2018-11-13T15:29:11.496Z,8.23
2018-11-13T15:31:39.885Z,7.03
2018-11-13T15:34:08.046Z,8.30
2018-11-13T15:36:36.220Z,7.50
2018-11-13T15:39:07.943Z,8.10
2018-11-13T15:41:36.201Z,7.00
2018-11-13T15:44:07.297Z,6.33
2018-11-13T15:46:38.117Z,6.40
2018-11-13T15:49:27.349Z,6.10
2018-11-13T15:51:55.500Z,5.60
2018-11-13T15:54:23.479Z,5.63
2018-11-13T15:56:51.686Z,5.47
2018-11-13T15:59:19.777Z,4.63
2018-11-13T16:01:47.869Z,4.70
2018-11-13T16:04:16.004Z,4.70
2018-11-13T16:06:45.360Z,4.40
2018-11-13T16:09:13.477Z,4.73
2018-11-13T16:11:42.198Z,4.10
2018-11-13T16:14:10.726Z,4.83
2018-11-13T16:16:38.839Z,4.53
2018-11-13T16:19:06.926Z,5.07
2018-11-13T16:21:35.712Z,4.73
2018-11-13T18:10:55.388Z,2.97
2018-11-13T18:13:23.255Z,3.60
2018-11-13T18:15:52.129Z,3.00
2018-11-13T18:18:19.939Z,3.87
2018-11-13T18:20:48.049Z,3.40
2018-11-13T18:23:15.928Z,3.23
2018-11-13T18:25:44.126Z,3.77
2018-11-13T18:28:11.925Z,3.50
2018-11-13T18:30:40.416Z,3.20
2018-11-13T18:33:08.818Z,3.30
2018-11-13T18:35:37.921Z,3.13
2018-11-13T18:38:07.552Z,3.47
2018-11-13T18:40:35.270Z,3.07
2018-11-13T18:43:03.383Z,3.47
2018-11-13T18:45:32.757Z,3.40
2018-11-13T18:48:00.545Z,3.47
2018-11-13T18:50:36.266Z,3.67
2018-11-13T18:53:04.599Z,3.27
2018-11-13T18:55:32.874Z,2.70
2018-11-13T18:58:01.103Z,2.80
2018-11-13T19:00:30.489Z,3.07
2018-11-13T19:02:59.220Z,2.80
2018-11-13T19:05:27.792Z,3.90
2018-11-13T19:07:56.102Z,3.05
2018-11-13T19:10:31.000Z,3.70
2018-11-13T19:12:59.931Z,3.83
2018-11-13T19:15:28.640Z,3.80
2018-11-13T19:17:58.236Z,4.03
2018-11-13T19:20:26.769Z,3.57
2018-11-13T19:22:54.462Z,4.37
2018-11-13T19:25:26.378Z,3.77
2018-11-13T19:27:55.144Z,4.23
2018-11-13T19:30:23.468Z,4.43
2018-11-13T19:32:51.310Z,4.30
2018-11-13T19:35:23.487Z,4.10
2018-11-13T19:37:52.579Z,3.77
2018-11-13T19:40:23.291Z,4.03
2018-11-13T19:42:53.710Z,4.00
2018-11-13T19:45:22.248Z,4.90
2018-11-13T19:47:50.311Z,4.30
2018-11-13T19:50:23.828Z,4.47
2018-11-13T20:18:09.771Z,4.73
2018-11-13T20:20:38.556Z,4.13
2018-11-13T20:23:07.430Z,4.67
2018-11-13T20:25:36.227Z,5.00
2018-11-13T20:28:04.363Z,4.80
2018-11-13T20:30:34.593Z,4.60
2018-11-13T20:33:02.599Z,5.07
2018-11-13T20:35:30.825Z,5.00
2018-11-13T20:37:59.261Z,5.87
2018-11-13T20:40:28.436Z,5.23
2018-11-13T20:42:58.482Z,4.73
2018-11-13T20:45:26.421Z,5.07
2018-11-13T20:47:54.216Z,5.23
2018-11-13T20:50:23.802Z,4.70
2018-11-13T20:52:51.815Z,5.43
2018-11-13T20:55:19.631Z,4.87
2018-11-13T20:57:47.499Z,4.67
2018-11-13T21:00:17.364Z,5.43
2018-11-13T21:02:45.716Z,5.60
2018-11-13T21:05:14.268Z,5.73
2018-11-13T21:07:42.472Z,6.00
2018-11-13T21:10:13.585Z,5.80
2018-11-13T21:12:41.866Z,7.57
2018-11-13T21:15:12.593Z,7.00
2018-11-13T21:17:40.379Z,5.93
2018-11-13T21:20:10.239Z,6.73
2018-11-13T21:22:38.267Z,6.20
2018-11-13T21:25:07.013Z,6.27
2018-11-13T21:27:35.106Z,6.63
2018-11-13T21:30:03.457Z,6.30
2018-11-13T21:32:30.966Z,6.27
2018-11-13T21:34:59.010Z,6.40
2018-11-13T21:37:26.660Z,6.70
2018-11-13T21:39:55.432Z,6.40
2018-11-13T21:42:23.472Z,6.30
2018-11-13T21:44:52.272Z,6.33
2018-11-13T21:47:20.422Z,6.33
2018-11-13T21:49:48.401Z,6.67
2018-11-13T21:52:16.198Z,6.13
2018-11-13T21:54:43.773Z,6.70
2018-11-13T21:57:11.789Z,6.97
2018-11-13T21:59:39.629Z,7.03
2018-11-13T22:02:07.364Z,7.30
2018-11-13T22:04:35.146Z,7.30
2018-11-13T22:07:03.094Z,6.73
2018-11-13T22:09:30.704Z,6.97
2018-11-13T22:11:58.289Z,7.07
2018-11-13T22:14:26.210Z,7.50
2018-11-13T22:16:53.943Z,7.33
2018-11-13T22:19:21.574Z,7.57
2018-11-13T22:21:49.328Z,6.80
2018-11-13T22:24:17.669Z,7.60
2018-11-13T22:26:45.509Z,8.13
2018-11-13T22:29:13.296Z,7.47
2018-11-13T22:31:40.980Z,8.20
2018-11-13T22:34:09.361Z,8.30
2018-11-13T22:36:37.168Z,8.10
2018-11-13T22:39:06.909Z,7.40
2018-11-13T22:41:34.520Z,8.13
2018-11-13T22:44:02.190Z,8.30
2018-11-13T22:46:29.876Z,8.50
2018-11-13T22:48:57.525Z,8.73
2018-11-13T22:51:25.429Z,7.60
2018-11-13T22:53:54.373Z,7.27
2018-11-13T22:56:21.717Z,7.60
2018-11-13T22:58:49.582Z,8.10
2018-11-13T23:01:17.465Z,8.17
2018-11-13T23:03:45.114Z,7.97
2018-11-13T23:06:12.839Z,7.60
2018-11-13T23:08:40.541Z,7.63
2018-11-13T23:11:13.558Z,9.07
2018-11-13T23:13:41.697Z,8.70
2018-11-13T23:16:09.590Z,7.63
2018-11-13T23:18:37.375Z,8.63
2018-11-13T23:21:05.244Z,8.73
2018-11-13T23:23:33.245Z,8.30
2018-11-13T23:26:02.044Z,8.63
2018-11-13T23:28:30.477Z,8.23
2018-11-13T23:30:58.370Z,8.50
2018-11-13T23:33:26.705Z,8.70
2018-11-13T23:35:54.763Z,9.07
2018-11-13T23:38:22.554Z,8.83
2018-11-13T23:40:50.669Z,9.37
2018-11-13T23:43:19.110Z,9.40
2018-11-13T23:45:46.901Z,8.93
2018-11-13T23:48:14.574Z,9.03
2018-11-13T23:50:42.208Z,8.87
2018-11-13T23:53:10.057Z,10.03
2018-11-13T23:55:38.021Z,9.37
2018-11-13T23:58:06.019Z,9.47
